createdAt,value
2019-01-10T00:02:58.217Z,12.93
2019-01-10T00:08:03.462Z,7.40
2019-01-10T00:13:08.437Z,7.23
2019-01-10T00:18:13.420Z,6.53
2019-01-10T00:23:18.517Z,10.47
2019-01-10T00:28:23.508Z,7.90
2019-01-10T00:33:28.503Z,13.27
2019-01-10T00:38:33.532Z,7.60
2019-01-10T00:43:38.543Z,15.47
2019-01-10T00:48:43.512Z,7.43
2019-01-10T00:53:48.619Z,8.63
2019-01-10T00:58:53.604Z,9.20
2019-01-10T01:03:58.612Z,11.13
2019-01-10T01:09:04.586Z,7.20
2019-01-10T01:14:09.584Z,9.43
2019-01-10T01:19:14.601Z,10.20
2019-01-10T01:24:19.668Z,6.20
2019-01-10T01:29:24.727Z,7.37
2019-01-10T01:34:29.747Z,8.50
2019-01-10T01:39:34.766Z,6.70
2019-01-10T01:44:39.786Z,7.20
2019-01-10T01:49:44.762Z,12.77
2019-01-10T01:54:49.900Z,7.10
2019-01-10T01:59:54.908Z,12.87
2019-01-10T02:04:59.876Z,9.50
2019-01-10T02:10:07.928Z,10.17
2019-01-10T02:15:14.385Z,10.97
2019-01-10T02:20:19.940Z,8.87
2019-01-10T02:25:25.039Z,8.07
2019-01-10T02:30:30.049Z,10.60
2019-01-10T02:35:35.024Z,12.50
2019-01-10T02:40:40.023Z,7.07
2019-01-10T02:45:44.995Z,9.50
2019-01-10T02:50:50.173Z,6.47
2019-01-10T02:55:55.143Z,7.63
2019-01-10T03:01:00.115Z,8.57
2019-01-10T03:06:05.583Z,10.43
2019-01-10T03:11:10.611Z,9.87
2019-01-10T03:16:15.648Z,8.77
2019-01-10T03:21:20.635Z,5.53
2019-01-10T03:26:25.651Z,6.80
2019-01-10T03:31:30.643Z,10.13
2019-01-10T03:36:35.637Z,10.23
2019-01-10T03:41:40.684Z,7.90
2019-01-10T03:46:46.014Z,6.17
2019-01-10T03:51:50.967Z,12.87
2019-01-10T03:56:56.094Z,11.60
2019-01-10T04:02:01.125Z,14.10
2019-01-10T04:07:06.114Z,8.20
2019-01-10T04:12:11.110Z,10.07
2019-01-10T04:17:16.302Z,12.43
2019-01-10T04:22:21.313Z,9.60
2019-01-10T04:27:26.303Z,7.10
2019-01-10T04:32:31.270Z,6.73
2019-01-10T04:37:36.513Z,9.23
2019-01-10T04:42:41.498Z,6.70
2019-01-10T04:47:46.605Z,7.43
2019-01-10T04:52:52.605Z,6.43
2019-01-10T04:57:57.631Z,7.93
2019-01-10T05:03:02.644Z,13.17
2019-01-10T05:08:07.631Z,9.80
2019-01-10T05:13:12.609Z,8.23
2019-01-10T05:18:17.588Z,7.80
2019-01-10T05:23:22.604Z,6.30
2019-01-10T05:28:27.562Z,6.00
2019-01-10T05:33:32.546Z,9.13
2019-01-10T05:38:37.528Z,6.60
2019-01-10T05:43:42.528Z,8.07
2019-01-10T05:48:47.547Z,7.43
2019-01-10T05:53:52.526Z,7.83
2019-01-10T05:58:57.500Z,6.30
2019-01-10T06:04:02.497Z,15.10
2019-01-10T06:09:09.203Z,8.70
2019-01-10T06:14:14.172Z,7.63
2019-01-10T06:19:26.728Z,7.93
2019-01-10T06:24:25.780Z,8.83
2019-01-10T06:29:30.743Z,7.90
2019-01-10T06:34:35.728Z,9.73
2019-01-10T06:39:40.732Z,8.10
2019-01-10T06:44:45.788Z,10.00
2019-01-10T06:49:50.752Z,7.50
2019-01-10T06:54:56.663Z,8.63
2019-01-10T07:00:02.115Z,13.07
2019-01-10T07:05:07.118Z,17.13
2019-01-10T07:10:18.895Z,11.73
2019-01-10T07:15:23.879Z,9.83
2019-01-10T07:20:28.866Z,6.27
2019-01-10T07:25:33.861Z,7.97
2019-01-10T07:30:38.828Z,10.73
2019-01-10T07:35:43.837Z,9.20
2019-01-10T07:40:48.837Z,9.10
2019-01-10T07:45:53.871Z,11.27
2019-01-10T07:50:58.867Z,6.47
2019-01-10T07:56:03.840Z,8.00
2019-01-10T08:01:08.834Z,6.77
2019-01-10T08:06:13.941Z,7.40
2019-01-10T08:11:19.536Z,10.00
2019-01-10T08:16:24.611Z,9.67
2019-01-10T08:21:29.636Z,7.90
2019-01-10T08:26:34.615Z,10.37
2019-01-10T08:31:39.593Z,11.77
2019-01-10T08:36:44.613Z,13.47
2019-01-10T08:41:49.616Z,11.20
2019-01-10T08:46:54.868Z,11.93
2019-01-10T08:51:59.847Z,9.73
2019-01-10T08:57:05.000Z,13.00
2019-01-10T09:02:09.977Z,11.53
2019-01-10T09:07:15.005Z,14.33
2019-01-10T09:12:19.995Z,15.53
2019-01-10T09:17:25.039Z,20.80
2019-01-10T09:22:30.070Z,21.20
2019-01-10T09:27:35.083Z,25.60
2019-01-10T09:32:40.060Z,27.17
2019-01-10T09:37:45.071Z,29.87
2019-01-10T09:42:50.076Z,36.97
2019-01-10T09:47:55.156Z,43.83
2019-01-10T09:53:01.996Z,63.90
2019-01-10T09:58:06.996Z,96.63
2019-01-10T10:03:11.995Z,59.10
2019-01-10T10:08:16.994Z,55.43
2019-01-10T10:13:21.978Z,48.03
2019-01-10T10:18:26.962Z,49.37
2019-01-10T10:23:32.171Z,42.90
2019-01-10T10:28:39.244Z,40.07
2019-01-10T10:33:44.205Z,44.07
2019-01-10T10:38:49.213Z,42.73
2019-01-10T10:43:54.204Z,41.10
2019-01-10T10:48:59.250Z,39.17
2019-01-10T10:54:04.572Z,39.03
2019-01-10T10:59:09.607Z,37.20
2019-01-10T11:04:14.590Z,35.67
2019-01-10T11:09:19.604Z,37.97
2019-01-10T11:14:24.616Z,41.27
2019-01-10T11:19:29.601Z,63.07
2019-01-10T11:24:34.577Z,44.93
2019-01-10T11:29:39.592Z,35.27
2019-01-10T11:34:44.588Z,33.43
2019-01-10T11:39:49.607Z,33.37
2019-01-10T11:44:54.635Z,36.20
2019-01-10T11:49:59.628Z,36.27
2019-01-10T11:55:05.267Z,36.03
2019-01-10T12:00:23.216Z,32.10
2019-01-10T12:05:28.215Z,25.57
2019-01-10T12:10:33.200Z,25.90
2019-01-10T12:15:38.227Z,24.27
2019-01-10T12:20:43.308Z,28.27
2019-01-10T12:25:48.347Z,26.77
2019-01-10T12:30:53.323Z,26.40
2019-01-10T12:35:58.319Z,26.03
2019-01-10T12:41:03.307Z,23.13
2019-01-10T12:46:08.290Z,18.57
2019-01-10T12:51:13.276Z,20.07
2019-01-10T12:56:18.611Z,19.93
2019-01-10T13:01:23.856Z,28.33
2019-01-10T13:06:29.644Z,30.50
2019-01-10T13:11:34.646Z,23.60
2019-01-10T13:16:46.781Z,20.90
2019-01-10T13:21:46.444Z,22.10
2019-01-10T13:26:51.502Z,19.33
2019-01-10T13:31:56.477Z,21.97
2019-01-10T13:37:01.579Z,21.47
2019-01-10T13:42:06.572Z,19.97
2019-01-10T13:47:11.563Z,22.57
2019-01-10T13:52:16.548Z,25.67
2019-01-10T13:57:21.823Z,30.67
2019-01-10T14:02:26.835Z,35.67
2019-01-10T14:07:31.911Z,20.87
2019-01-10T14:12:36.916Z,21.53
2019-01-10T14:17:42.458Z,21.50
2019-01-10T14:22:47.755Z,26.17
2019-01-10T14:27:59.340Z,28.03
2019-01-10T14:32:59.729Z,25.23
2019-01-10T14:38:05.492Z,24.80
2019-01-10T14:43:10.494Z,25.13
2019-01-10T14:48:15.824Z,26.03
2019-01-10T14:53:21.128Z,26.27
2019-01-10T14:58:26.121Z,24.37
2019-01-10T15:03:31.097Z,22.07
2019-01-10T15:08:36.082Z,28.10
2019-01-10T15:13:41.056Z,31.83
2019-01-10T15:18:46.105Z,41.53
2019-01-10T15:23:51.098Z,43.63
2019-01-10T15:28:56.095Z,38.20
2019-01-10T15:34:01.094Z,32.90
2019-01-10T15:39:08.211Z,37.47
2019-01-10T15:44:13.183Z,32.63
2019-01-10T15:49:18.188Z,33.03
2019-01-10T15:54:23.219Z,32.87
2019-01-10T15:59:28.221Z,31.67
2019-01-10T16:04:33.219Z,29.70
2019-01-10T16:09:38.217Z,31.33
2019-01-10T16:14:45.032Z,19.87
2019-01-10T16:19:50.020Z,18.73
2019-01-10T16:24:55.086Z,20.43
2019-01-10T16:30:00.056Z,21.93
2019-01-10T16:35:05.946Z,23.23
2019-01-10T16:40:12.208Z,24.17
2019-01-10T16:45:36.308Z,29.03
2019-01-10T16:50:41.301Z,26.47
2019-01-10T16:55:46.296Z,25.13
2019-01-10T17:00:51.313Z,24.47
2019-01-10T17:05:57.361Z,27.93
2019-01-10T17:11:02.352Z,26.30
2019-01-10T17:16:07.579Z,23.33
2019-01-10T17:21:12.621Z,18.77
2019-01-10T17:26:17.619Z,16.73
2019-01-10T17:31:22.612Z,12.87
2019-01-10T17:36:27.609Z,11.33
2019-01-10T17:41:32.601Z,8.57
2019-01-10T17:46:37.583Z,9.03
2019-01-10T17:51:42.873Z,8.50
2019-01-10T17:56:47.883Z,9.30
2019-01-10T18:01:52.909Z,10.50
2019-01-10T18:06:57.902Z,8.73
2019-01-10T18:12:02.894Z,10.47
2019-01-10T18:17:08.019Z,10.53
2019-01-10T18:22:13.094Z,15.40
2019-01-10T18:27:18.232Z,18.40
2019-01-10T18:32:23.248Z,17.70
2019-01-10T18:37:28.317Z,15.10
2019-01-10T18:42:33.326Z,21.87
2019-01-10T18:47:38.422Z,26.13
2019-01-10T18:52:43.429Z,31.87
2019-01-10T18:57:48.531Z,35.67
2019-01-10T19:02:53.963Z,35.77
2019-01-10T19:07:59.339Z,24.07
2019-01-10T19:13:04.345Z,14.83
2019-01-10T19:18:09.345Z,12.10
2019-01-10T19:23:14.379Z,12.80
2019-01-10T19:28:19.393Z,12.80
2019-01-10T19:33:24.383Z,12.07
2019-01-10T19:38:29.392Z,10.70
2019-01-10T19:43:35.870Z,12.13
2019-01-10T19:48:40.964Z,13.17
2019-01-10T19:53:46.014Z,16.57
2019-01-10T19:58:51.021Z,15.93
2019-01-10T20:03:56.015Z,17.10
2019-01-10T20:09:01.013Z,17.40
2019-01-10T20:14:06.350Z,19.40
2019-01-10T20:19:11.659Z,25.07
2019-01-10T20:24:16.653Z,44.97
2019-01-10T20:29:22.372Z,23.80
2019-01-10T20:34:27.360Z,30.97
2019-01-10T20:39:32.421Z,45.30
2019-01-10T20:44:37.408Z,35.73
2019-01-10T20:49:42.405Z,35.17
2019-01-10T20:54:47.436Z,58.73
2019-01-10T20:59:52.457Z,65.10
2019-01-10T21:04:57.437Z,33.07
2019-01-10T21:10:02.549Z,49.63
2019-01-10T21:15:10.742Z,39.63
2019-01-10T21:20:15.752Z,76.13
2019-01-10T21:25:20.758Z,147.30
2019-01-10T21:30:26.116Z,113.23
2019-01-10T21:35:31.426Z,116.50
2019-01-10T21:40:36.424Z,91.70
2019-01-10T21:45:41.424Z,101.80
2019-01-10T21:50:46.459Z,98.77
2019-01-10T21:55:51.469Z,68.50
2019-01-10T22:00:56.492Z,68.00
2019-01-10T22:06:01.476Z,67.50
2019-01-10T22:11:06.500Z,80.47
2019-01-10T22:16:11.511Z,59.53
2019-01-10T22:21:16.892Z,74.27
2019-01-10T22:26:22.162Z,72.50
2019-01-10T22:31:27.159Z,64.27
2019-01-10T22:36:32.180Z,65.77
2019-01-10T22:41:37.167Z,88.23
2019-01-10T22:46:42.241Z,124.37
2019-01-10T22:51:47.517Z,108.10
2019-01-10T22:56:52.529Z,80.93
2019-01-10T23:01:59.928Z,170.50
2019-01-10T23:07:08.117Z,111.83
2019-01-10T23:12:13.113Z,115.57
2019-01-10T23:17:18.117Z,123.67
2019-01-10T23:22:23.202Z,158.87
2019-01-10T23:27:28.204Z,178.53
2019-01-10T23:32:33.216Z,135.23
2019-01-10T23:37:38.877Z,122.73
2019-01-10T23:42:44.041Z,249.60
2019-01-10T23:47:48.992Z,134.70
2019-01-10T23:52:54.032Z,151.50
2019-01-10T23:57:59.020Z,175.20
